sensor_id;sensor_type;location;lat;lon;timestamp;P1;durP1;ratioP1;P2;durP2;ratioP2
4652;SDS011;9900;48.738;9.306;2022-12-13T00:02:00;27.43;;;13.80;;
4652;SDS011;9900;48.738;9.306;2022-12-13T00:04:29;28.40;;;13.30;;
4652;SDS011;9900;48.738;9.306;2022-12-13T00:06:58;26.57;;;13.50;;
4652;SDS011;9900;48.738;9.306;2022-12-13T00:09:26;27.40;;;14.40;;
4652;SDS011;9900;48.738;9.306;2022-12-13T00:11:55;25.73;;;13.53;;
4652;SDS011;9900;48.738;9.306;2022-12-13T00:14:25;24.27;;;13.23;;
4652;SDS011;9900;48.738;9.306;2022-12-13T00:16:54;28.40;;;12.90;;
4652;SDS011;9900;48.738;9.306;2022-12-13T00:19:22;27.27;;;13.43;;
4652;SDS011;9900;48.738;9.306;2022-12-13T00:21:51;27.73;;;14.20;;
4652;SDS011;9900;48.738;9.306;2022-12-13T00:24:20;35.80;;;15.10;;
4652;SDS011;9900;48.738;9.306;2022-12-13T00:26:48;32.23;;;14.67;;
4652;SDS011;9900;48.738;9.306;2022-12-13T00:29:17;27.33;;;13.23;;
4652;SDS011;9900;48.738;9.306;2022-12-13T00:31:47;25.53;;;13.20;;
4652;SDS011;9900;48.738;9.306;2022-12-13T00:34:27;27.70;;;14.07;;
4652;SDS011;9900;48.738;9.306;2022-12-13T00:36:56;30.17;;;12.50;;
4652;SDS011;9900;48.738;9.306;2022-12-13T00:39:26;28.30;;;14.37;;
4652;SDS011;9900;48.738;9.306;2022-12-13T00:41:55;28.30;;;13.73;;
4652;SDS011;9900;48.738;9.306;2022-12-13T00:44:24;20.33;;;11.90;;
4652;SDS011;9900;48.738;9.306;2022-12-13T00:46:54;24.13;;;12.60;;
4652;SDS011;9900;48.738;9.306;2022-12-13T00:49:23;25.83;;;13.30;;
4652;SDS011;9900;48.738;9.306;2022-12-13T00:51:51;31.40;;;13.03;;
4652;SDS011;9900;48.738;9.306;2022-12-13T00:54:20;24.03;;;13.20;;
4652;SDS011;9900;48.738;9.306;2022-12-13T00:56:49;24.83;;;13.00;;
4652;SDS011;9900;48.738;9.306;2022-12-13T00:59:18;27.40;;;13.37;;
4652;SDS011;9900;48.738;9.306;2022-12-13T01:01:47;24.43;;;13.60;;
4652;SDS011;9900;48.738;9.306;2022-12-13T01:04:17;32.20;;;14.73;;
4652;SDS011;9900;48.738;9.306;2022-12-13T01:06:46;21.57;;;12.60;;
4652;SDS011;9900;48.738;9.306;2022-12-13T01:09:18;25.47;;;13.57;;
4652;SDS011;9900;48.738;9.306;2022-12-13T01:11:48;24.00;;;13.10;;
4652;SDS011;9900;48.738;9.306;2022-12-13T01:14:17;26.10;;;13.60;;
4652;SDS011;9900;48.738;9.306;2022-12-13T01:16:46;28.80;;;13.20;;
4652;SDS011;9900;48.738;9.306;2022-12-13T01:19:17;20.77;;;12.93;;
4652;SDS011;9900;48.738;9.306;2022-12-13T01:21:45;30.33;;;14.17;;
4652;SDS011;9900;48.738;9.306;2022-12-13T01:24:14;30.10;;;13.83;;
4652;SDS011;9900;48.738;9.306;2022-12-13T01:26:46;26.33;;;13.97;;
4652;SDS011;9900;48.738;9.306;2022-12-13T01:29:15;26.07;;;13.53;;
4652;SDS011;9900;48.738;9.306;2022-12-13T01:31:44;26.87;;;13.60;;
4652;SDS011;9900;48.738;9.306;2022-12-13T01:34:13;26.57;;;13.30;;
4652;SDS011;9900;48.738;9.306;2022-12-13T01:36:45;24.13;;;12.53;;
4652;SDS011;9900;48.738;9.306;2022-12-13T01:39:15;26.00;;;14.00;;
4652;SDS011;9900;48.738;9.306;2022-12-13T01:41:53;27.33;;;12.90;;
4652;SDS011;9900;48.738;9.306;2022-12-13T01:47:25;24.60;;;12.80;;
4652;SDS011;9900;48.738;9.306;2022-12-13T01:49:57;25.40;;;13.03;;
4652;SDS011;9900;48.738;9.306;2022-12-13T01:52:29;27.27;;;12.57;;
4652;SDS011;9900;48.738;9.306;2022-12-13T01:55:00;24.63;;;12.43;;
4652;SDS011;9900;48.738;9.306;2022-12-13T01:57:30;24.83;;;14.33;;
4652;SDS011;9900;48.738;9.306;2022-12-13T02:00:00;24.93;;;14.00;;
4652;SDS011;9900;48.738;9.306;2022-12-13T02:02:29;28.73;;;14.70;;
4652;SDS011;9900;48.738;9.306;2022-12-13T02:04:58;33.67;;;14.80;;
4652;SDS011;9900;48.738;9.306;2022-12-13T02:07:33;27.10;;;13.90;;
4652;SDS011;9900;48.738;9.306;2022-12-13T02:10:03;28.87;;;13.57;;
4652;SDS011;9900;48.738;9.306;2022-12-13T02:12:34;31.93;;;15.13;;
4652;SDS011;9900;48.738;9.306;2022-12-13T02:15:04;28.20;;;14.30;;
4652;SDS011;9900;48.738;9.306;2022-12-13T02:17:43;28.33;;;13.10;;
4652;SDS011;9900;48.738;9.306;2022-12-13T02:20:29;33.43;;;14.23;;
4652;SDS011;9900;48.738;9.306;2022-12-13T02:23:16;26.50;;;13.93;;
4652;SDS011;9900;48.738;9.306;2022-12-13T02:26:00;26.30;;;13.60;;
4652;SDS011;9900;48.738;9.306;2022-12-13T02:28:45;25.67;;;13.37;;
4652;SDS011;9900;48.738;9.306;2022-12-13T02:31:24;24.00;;;13.40;;
4652;SDS011;9900;48.738;9.306;2022-12-13T02:33:58;23.27;;;13.43;;
4652;SDS011;9900;48.738;9.306;2022-12-13T02:36:29;27.10;;;13.87;;
4652;SDS011;9900;48.738;9.306;2022-12-13T02:39:05;24.10;;;12.63;;
4652;SDS011;9900;48.738;9.306;2022-12-13T02:41:36;26.60;;;13.13;;
4652;SDS011;9900;48.738;9.306;2022-12-13T02:44:08;26.27;;;13.30;;
4652;SDS011;9900;48.738;9.306;2022-12-13T02:46:52;22.67;;;12.63;;
4652;SDS011;9900;48.738;9.306;2022-12-13T02:49:23;26.97;;;12.73;;
4652;SDS011;9900;48.738;9.306;2022-12-13T02:51:53;29.03;;;12.87;;
4652;SDS011;9900;48.738;9.306;2022-12-13T02:54:23;23.53;;;12.87;;
4652;SDS011;9900;48.738;9.306;2022-12-13T02:56:52;25.37;;;13.13;;
4652;SDS011;9900;48.738;9.306;2022-12-13T02:59:22;27.03;;;12.77;;
4652;SDS011;9900;48.738;9.306;2022-12-13T03:01:55;23.10;;;12.80;;
4652;SDS011;9900;48.738;9.306;2022-12-13T03:04:39;23.67;;;11.90;;
4652;SDS011;9900;48.738;9.306;2022-12-13T03:07:28;22.67;;;12.10;;
4652;SDS011;9900;48.738;9.306;2022-12-13T03:10:02;30.67;;;13.67;;
4652;SDS011;9900;48.738;9.306;2022-12-13T03:12:40;24.07;;;12.20;;
4652;SDS011;9900;48.738;9.306;2022-12-13T03:15:32;24.07;;;12.37;;
4652;SDS011;9900;48.738;9.306;2022-12-13T03:18:04;26.00;;;13.53;;
4652;SDS011;9900;48.738;9.306;2022-12-13T03:20:43;23.77;;;12.70;;
4652;SDS011;9900;48.738;9.306;2022-12-13T03:23:13;20.80;;;11.67;;
4652;SDS011;9900;48.738;9.306;2022-12-13T03:25:42;28.37;;;14.57;;
4652;SDS011;9900;48.738;9.306;2022-12-13T03:28:12;22.97;;;12.53;;
4652;SDS011;9900;48.738;9.306;2022-12-13T03:30:41;22.40;;;13.83;;
4652;SDS011;9900;48.738;9.306;2022-12-13T03:33:10;26.97;;;13.53;;
4652;SDS011;9900;48.738;9.306;2022-12-13T03:35:39;24.53;;;13.07;;
4652;SDS011;9900;48.738;9.306;2022-12-13T03:38:12;29.30;;;15.30;;
4652;SDS011;9900;48.738;9.306;2022-12-13T03:40:50;24.90;;;13.30;;
4652;SDS011;9900;48.738;9.306;2022-12-13T03:43:20;27.60;;;13.27;;
4652;SDS011;9900;48.738;9.306;2022-12-13T03:45:50;28.80;;;14.80;;
4652;SDS011;9900;48.738;9.306;2022-12-13T03:48:20;26.70;;;13.23;;
4652;SDS011;9900;48.738;9.306;2022-12-13T03:50:51;26.90;;;13.53;;
4652;SDS011;9900;48.738;9.306;2022-12-13T03:53:22;24.30;;;12.57;;
4652;SDS011;9900;48.738;9.306;2022-12-13T03:56:01;32.30;;;12.00;;
4652;SDS011;9900;48.738;9.306;2022-12-13T03:58:31;23.17;;;12.63;;
4652;SDS011;9900;48.738;9.306;2022-12-13T04:01:05;23.97;;;13.10;;
4652;SDS011;9900;48.738;9.306;2022-12-13T04:03:35;24.80;;;12.57;;
4652;SDS011;9900;48.738;9.306;2022-12-13T04:06:05;22.77;;;11.73;;
4652;SDS011;9900;48.738;9.306;2022-12-13T04:08:34;25.77;;;13.30;;
4652;SDS011;9900;48.738;9.306;2022-12-13T04:11:03;26.77;;;13.93;;
4652;SDS011;9900;48.738;9.306;2022-12-13T04:13:52;23.53;;;11.80;;
4652;SDS011;9900;48.738;9.306;2022-12-13T04:16:21;22.80;;;12.40;;
4652;SDS011;9900;48.738;9.306;2022-12-13T04:18:51;22.83;;;12.80;;
4652;SDS011;9900;48.738;9.306;2022-12-13T04:21:20;26.33;;;13.70;;
4652;SDS011;9900;48.738;9.306;2022-12-13T04:23:48;23.83;;;12.70;;
4652;SDS011;9900;48.738;9.306;2022-12-13T04:26:17;22.67;;;12.67;;
4652;SDS011;9900;48.738;9.306;2022-12-13T04:28:46;29.00;;;12.90;;
4652;SDS011;9900;48.738;9.306;2022-12-13T04:31:20;29.90;;;13.60;;
4652;SDS011;9900;48.738;9.306;2022-12-13T04:33:49;25.57;;;13.33;;
4652;SDS011;9900;48.738;9.306;2022-12-13T04:36:19;27.40;;;12.63;;
4652;SDS011;9900;48.738;9.306;2022-12-13T04:38:59;24.93;;;13.03;;
4652;SDS011;9900;48.738;9.306;2022-12-13T04:41:28;22.20;;;12.70;;
4652;SDS011;9900;48.738;9.306;2022-12-13T04:44:01;23.93;;;12.20;;
4652;SDS011;9900;48.738;9.306;2022-12-13T04:46:30;23.20;;;11.53;;
4652;SDS011;9900;48.738;9.306;2022-12-13T04:49:00;20.60;;;10.80;;
4652;SDS011;9900;48.738;9.306;2022-12-13T04:51:28;24.07;;;11.93;;
4652;SDS011;9900;48.738;9.306;2022-12-13T04:53:57;20.33;;;11.90;;
4652;SDS011;9900;48.738;9.306;2022-12-13T04:56:46;24.40;;;12.77;;
4652;SDS011;9900;48.738;9.306;2022-12-13T04:59:14;21.57;;;11.20;;
4652;SDS011;9900;48.738;9.306;2022-12-13T05:01:43;27.33;;;12.67;;
4652;SDS011;9900;48.738;9.306;2022-12-13T05:04:13;23.20;;;11.50;;
4652;SDS011;9900;48.738;9.306;2022-12-13T05:06:42;23.63;;;12.27;;
4652;SDS011;9900;48.738;9.306;2022-12-13T05:09:10;23.60;;;11.83;;
4652;SDS011;9900;48.738;9.306;2022-12-13T05:11:39;20.50;;;11.53;;
4652;SDS011;9900;48.738;9.306;2022-12-13T05:14:12;23.43;;;11.47;;
4652;SDS011;9900;48.738;9.306;2022-12-13T05:16:49;27.33;;;12.70;;
4652;SDS011;9900;48.738;9.306;2022-12-13T05:19:20;21.50;;;12.17;;
4652;SDS011;9900;48.738;9.306;2022-12-13T05:21:57;20.60;;;11.17;;
4652;SDS011;9900;48.738;9.306;2022-12-13T05:24:28;24.17;;;12.37;;
4652;SDS011;9900;48.738;9.306;2022-12-13T05:26:58;25.93;;;12.13;;
4652;SDS011;9900;48.738;9.306;2022-12-13T05:29:27;19.87;;;10.63;;
4652;SDS011;9900;48.738;9.306;2022-12-13T05:31:55;23.33;;;11.43;;
4652;SDS011;9900;48.738;9.306;2022-12-13T05:34:26;22.77;;;11.50;;
4652;SDS011;9900;48.738;9.306;2022-12-13T05:36:55;22.20;;;11.13;;
4652;SDS011;9900;48.738;9.306;2022-12-13T05:39:23;22.90;;;11.13;;
4652;SDS011;9900;48.738;9.306;2022-12-13T05:41:56;22.67;;;10.97;;
4652;SDS011;9900;48.738;9.306;2022-12-13T05:44:29;19.73;;;10.23;;
4652;SDS011;9900;48.738;9.306;2022-12-13T05:46:58;17.30;;;9.70;;
4652;SDS011;9900;48.738;9.306;2022-12-13T05:49:30;20.47;;;10.97;;
4652;SDS011;9900;48.738;9.306;2022-12-13T05:51:59;24.67;;;11.80;;
4652;SDS011;9900;48.738;9.306;2022-12-13T05:54:27;20.70;;;10.77;;
4652;SDS011;9900;48.738;9.306;2022-12-13T05:56:56;17.10;;;10.00;;
4652;SDS011;9900;48.738;9.306;2022-12-13T05:59:25;25.10;;;11.30;;
4652;SDS011;9900;48.738;9.306;2022-12-13T06:01:53;19.70;;;11.20;;
4652;SDS011;9900;48.738;9.306;2022-12-13T06:04:22;22.77;;;11.00;;
4652;SDS011;9900;48.738;9.306;2022-12-13T06:06:52;21.60;;;11.57;;
4652;SDS011;9900;48.738;9.306;2022-12-13T06:09:21;19.23;;;10.87;;
4652;SDS011;9900;48.738;9.306;2022-12-13T06:11:50;28.77;;;14.88;;
4652;SDS011;9900;48.738;9.306;2022-12-13T06:14:27;20.27;;;11.60;;
4652;SDS011;9900;48.738;9.306;2022-12-13T06:16:56;17.43;;;10.73;;
4652;SDS011;9900;48.738;9.306;2022-12-13T06:19:25;21.27;;;11.23;;
4652;SDS011;9900;48.738;9.306;2022-12-13T06:21:55;23.07;;;11.10;;
4652;SDS011;9900;48.738;9.306;2022-12-13T06:24:24;24.13;;;12.00;;
4652;SDS011;9900;48.738;9.306;2022-12-13T06:26:53;23.70;;;12.03;;
4652;SDS011;9900;48.738;9.306;2022-12-13T06:29:22;17.37;;;10.57;;
4652;SDS011;9900;48.738;9.306;2022-12-13T06:31:52;22.57;;;10.77;;
4652;SDS011;9900;48.738;9.306;2022-12-13T06:34:29;18.30;;;10.47;;
4652;SDS011;9900;48.738;9.306;2022-12-13T06:37:01;23.30;;;10.40;;
4652;SDS011;9900;48.738;9.306;2022-12-13T06:39:30;19.67;;;10.30;;
4652;SDS011;9900;48.738;9.306;2022-12-13T06:42:00;19.13;;;10.17;;
4652;SDS011;9900;48.738;9.306;2022-12-13T06:44:32;21.03;;;10.60;;
4652;SDS011;9900;48.738;9.306;2022-12-13T06:47:00;22.30;;;9.87;;
4652;SDS011;9900;48.738;9.306;2022-12-13T06:49:39;19.13;;;10.00;;
4652;SDS011;9900;48.738;9.306;2022-12-13T06:52:12;16.90;;;9.87;;
4652;SDS011;9900;48.738;9.306;2022-12-13T06:54:41;21.43;;;9.97;;
4652;SDS011;9900;48.738;9.306;2022-12-13T06:57:10;21.90;;;10.90;;
4652;SDS011;9900;48.738;9.306;2022-12-13T06:59:39;19.20;;;11.30;;
4652;SDS011;9900;48.738;9.306;2022-12-13T07:02:09;22.37;;;10.83;;
4652;SDS011;9900;48.738;9.306;2022-12-13T07:04:52;19.60;;;10.03;;
4652;SDS011;9900;48.738;9.306;2022-12-13T07:07:23;23.63;;;11.53;;
4652;SDS011;9900;48.738;9.306;2022-12-13T07:09:52;19.37;;;11.00;;
4652;SDS011;9900;48.738;9.306;2022-12-13T07:12:21;19.10;;;9.97;;
4652;SDS011;9900;48.738;9.306;2022-12-13T07:14:49;18.13;;;9.80;;
4652;SDS011;9900;48.738;9.306;2022-12-13T07:17:18;15.73;;;8.93;;
4652;SDS011;9900;48.738;9.306;2022-12-13T07:20:01;15.63;;;8.73;;
4652;SDS011;9900;48.738;9.306;2022-12-13T07:22:32;19.33;;;9.90;;
4652;SDS011;9900;48.738;9.306;2022-12-13T07:25:06;15.80;;;9.03;;
4652;SDS011;9900;48.738;9.306;2022-12-13T07:27:56;17.50;;;9.50;;
4652;SDS011;9900;48.738;9.306;2022-12-13T07:30:29;17.10;;;8.97;;
4652;SDS011;9900;48.738;9.306;2022-12-13T07:32:59;21.40;;;9.50;;
4652;SDS011;9900;48.738;9.306;2022-12-13T07:35:28;22.10;;;9.30;;
4652;SDS011;9900;48.738;9.306;2022-12-13T07:38:04;20.80;;;10.47;;
4652;SDS011;9900;48.738;9.306;2022-12-13T07:40:33;18.37;;;10.00;;
4652;SDS011;9900;48.738;9.306;2022-12-13T07:43:02;19.60;;;9.03;;
4652;SDS011;9900;48.738;9.306;2022-12-13T07:45:32;18.80;;;8.93;;
4652;SDS011;9900;48.738;9.306;2022-12-13T07:48:04;17.57;;;8.27;;
4652;SDS011;9900;48.738;9.306;2022-12-13T07:50:34;12.20;;;7.57;;
4652;SDS011;9900;48.738;9.306;2022-12-13T07:53:06;13.87;;;7.30;;
4652;SDS011;9900;48.738;9.306;2022-12-13T07:55:35;12.97;;;7.00;;
4652;SDS011;9900;48.738;9.306;2022-12-13T07:58:05;10.27;;;6.70;;
4652;SDS011;9900;48.738;9.306;2022-12-13T08:00:34;11.13;;;6.60;;
4652;SDS011;9900;48.738;9.306;2022-12-13T08:03:04;10.93;;;7.10;;
4652;SDS011;9900;48.738;9.306;2022-12-13T08:05:33;11.93;;;7.03;;
4652;SDS011;9900;48.738;9.306;2022-12-13T08:08:07;19.43;;;7.00;;
4652;SDS011;9900;48.738;9.306;2022-12-13T08:10:38;13.20;;;6.77;;
4652;SDS011;9900;48.738;9.306;2022-12-13T08:13:06;13.83;;;7.67;;
4652;SDS011;9900;48.738;9.306;2022-12-13T08:15:35;14.83;;;7.70;;
4652;SDS011;9900;48.738;9.306;2022-12-13T08:18:04;14.43;;;8.70;;
4652;SDS011;9900;48.738;9.306;2022-12-13T08:20:32;10.80;;;6.53;;
4652;SDS011;9900;48.738;9.306;2022-12-13T08:23:01;21.40;;;7.33;;
4652;SDS011;9900;48.738;9.306;2022-12-13T08:25:31;11.37;;;7.07;;
4652;SDS011;9900;48.738;9.306;2022-12-13T08:27:59;13.90;;;7.50;;
4652;SDS011;9900;48.738;9.306;2022-12-13T08:30:30;14.17;;;7.37;;
4652;SDS011;9900;48.738;9.306;2022-12-13T08:32:59;14.77;;;8.40;;
4652;SDS011;9900;48.738;9.306;2022-12-13T08:35:31;13.60;;;7.40;;
4652;SDS011;9900;48.738;9.306;2022-12-13T08:38:01;15.80;;;7.10;;
4652;SDS011;9900;48.738;9.306;2022-12-13T08:40:32;13.37;;;7.50;;
4652;SDS011;9900;48.738;9.306;2022-12-13T08:43:01;15.17;;;7.97;;
4652;SDS011;9900;48.738;9.306;2022-12-13T08:45:30;14.87;;;7.63;;
4652;SDS011;9900;48.738;9.306;2022-12-13T08:48:00;13.57;;;8.20;;
4652;SDS011;9900;48.738;9.306;2022-12-13T08:50:29;12.63;;;6.97;;
4652;SDS011;9900;48.738;9.306;2022-12-13T08:52:58;15.07;;;8.03;;
4652;SDS011;9900;48.738;9.306;2022-12-13T08:55:26;16.30;;;7.80;;
4652;SDS011;9900;48.738;9.306;2022-12-13T08:58:03;13.50;;;7.63;;
4652;SDS011;9900;48.738;9.306;2022-12-13T09:00:35;13.17;;;7.00;;
4652;SDS011;9900;48.738;9.306;2022-12-13T09:03:04;13.67;;;6.97;;
4652;SDS011;9900;48.738;9.306;2022-12-13T09:05:36;18.10;;;7.60;;
4652;SDS011;9900;48.738;9.306;2022-12-13T09:08:05;14.73;;;8.67;;
4652;SDS011;9900;48.738;9.306;2022-12-13T09:10:54;13.50;;;8.47;;
4652;SDS011;9900;48.738;9.306;2022-12-13T09:13:27;14.77;;;7.63;;
4652;SDS011;9900;48.738;9.306;2022-12-13T09:16:02;14.70;;;7.40;;
4652;SDS011;9900;48.738;9.306;2022-12-13T09:18:40;11.80;;;6.97;;
4652;SDS011;9900;48.738;9.306;2022-12-13T09:21:10;12.93;;;7.17;;
4652;SDS011;9900;48.738;9.306;2022-12-13T09:23:48;17.03;;;7.73;;
4652;SDS011;9900;48.738;9.306;2022-12-13T09:26:17;16.10;;;7.70;;
4652;SDS011;9900;48.738;9.306;2022-12-13T09:28:53;28.73;;;7.03;;
4652;SDS011;9900;48.738;9.306;2022-12-13T09:31:21;12.70;;;7.30;;
4652;SDS011;9900;48.738;9.306;2022-12-13T09:33:50;20.27;;;7.77;;
4652;SDS011;9900;48.738;9.306;2022-12-13T09:36:19;11.63;;;6.33;;
4652;SDS011;9900;48.738;9.306;2022-12-13T09:38:50;15.80;;;7.00;;
4652;SDS011;9900;48.738;9.306;2022-12-13T09:41:20;12.70;;;6.23;;
4652;SDS011;9900;48.738;9.306;2022-12-13T09:43:57;10.97;;;6.93;;
4652;SDS011;9900;48.738;9.306;2022-12-13T09:46:29;13.10;;;7.50;;
4652;SDS011;9900;48.738;9.306;2022-12-13T09:49:11;13.37;;;6.70;;
4652;SDS011;9900;48.738;9.306;2022-12-13T09:51:51;14.00;;;6.53;;
4652;SDS011;9900;48.738;9.306;2022-12-13T09:54:38;18.90;;;9.10;;
4652;SDS011;9900;48.738;9.306;2022-12-13T09:57:15;15.90;;;7.60;;
4652;SDS011;9900;48.738;9.306;2022-12-13T10:00:02;26.43;;;8.90;;
4652;SDS011;9900;48.738;9.306;2022-12-13T10:02:32;18.50;;;7.50;;
4652;SDS011;9900;48.738;9.306;2022-12-13T10:05:11;18.83;;;7.63;;
4652;SDS011;9900;48.738;9.306;2022-12-13T10:07:50;22.37;;;7.30;;
4652;SDS011;9900;48.738;9.306;2022-12-13T10:10:20;20.10;;;6.97;;
4652;SDS011;9900;48.738;9.306;2022-12-13T10:12:50;15.10;;;7.37;;
4652;SDS011;9900;48.738;9.306;2022-12-13T10:15:22;19.97;;;7.10;;
4652;SDS011;9900;48.738;9.306;2022-12-13T10:17:51;13.30;;;6.40;;
4652;SDS011;9900;48.738;9.306;2022-12-13T10:20:23;14.70;;;7.00;;
4652;SDS011;9900;48.738;9.306;2022-12-13T10:22:54;12.83;;;7.23;;
4652;SDS011;9900;48.738;9.306;2022-12-13T10:25:44;11.43;;;6.40;;
4652;SDS011;9900;48.738;9.306;2022-12-13T10:28:18;12.30;;;6.60;;
4652;SDS011;9900;48.738;9.306;2022-12-13T10:30:54;13.00;;;6.97;;
4652;SDS011;9900;48.738;9.306;2022-12-13T10:33:25;15.83;;;7.03;;
4652;SDS011;9900;48.738;9.306;2022-12-13T10:36:06;17.70;;;7.20;;
4652;SDS011;9900;48.738;9.306;2022-12-13T10:38:37;11.30;;;6.17;;
4652;SDS011;9900;48.738;9.306;2022-12-13T10:41:26;14.40;;;6.30;;
4652;SDS011;9900;48.738;9.306;2022-12-13T10:44:07;13.63;;;6.30;;
4652;SDS011;9900;48.738;9.306;2022-12-13T10:46:49;16.30;;;6.17;;
4652;SDS011;9900;48.738;9.306;2022-12-13T10:49:20;8.63;;;5.50;;
4652;SDS011;9900;48.738;9.306;2022-12-13T10:51:50;14.73;;;6.00;;
4652;SDS011;9900;48.738;9.306;2022-12-13T10:54:23;11.97;;;6.57;;
4652;SDS011;9900;48.738;9.306;2022-12-13T10:56:54;9.87;;;5.53;;
4652;SDS011;9900;48.738;9.306;2022-12-13T10:59:29;12.47;;;5.83;;
4652;SDS011;9900;48.738;9.306;2022-12-13T11:02:01;11.73;;;6.00;;
4652;SDS011;9900;48.738;9.306;2022-12-13T11:04:56;10.13;;;5.93;;
4652;SDS011;9900;48.738;9.306;2022-12-13T11:07:26;11.07;;;5.60;;
4652;SDS011;9900;48.738;9.306;2022-12-13T11:09:56;9.17;;;5.70;;
4652;SDS011;9900;48.738;9.306;2022-12-13T11:12:31;8.67;;;5.27;;
4652;SDS011;9900;48.738;9.306;2022-12-13T11:15:01;11.03;;;6.70;;
4652;SDS011;9900;48.738;9.306;2022-12-13T11:17:36;13.57;;;6.33;;
4652;SDS011;9900;48.738;9.306;2022-12-13T11:20:06;21.77;;;6.10;;
4652;SDS011;9900;48.738;9.306;2022-12-13T11:22:44;11.77;;;6.17;;
4652;SDS011;9900;48.738;9.306;2022-12-13T11:25:18;10.27;;;5.50;;
4652;SDS011;9900;48.738;9.306;2022-12-13T11:27:51;9.63;;;5.17;;
4652;SDS011;9900;48.738;9.306;2022-12-13T11:30:51;11.73;;;6.33;;
4652;SDS011;9900;48.738;9.306;2022-12-13T11:33:31;7.33;;;4.70;;
4652;SDS011;9900;48.738;9.306;2022-12-13T11:36:17;12.50;;;5.30;;
4652;SDS011;9900;48.738;9.306;2022-12-13T11:38:53;7.83;;;4.70;;
4652;SDS011;9900;48.738;9.306;2022-12-13T11:41:33;8.40;;;5.00;;
4652;SDS011;9900;48.738;9.306;2022-12-13T11:44:05;7.97;;;4.83;;
4652;SDS011;9900;48.738;9.306;2022-12-13T11:46:41;8.33;;;4.97;;
4652;SDS011;9900;48.738;9.306;2022-12-13T11:49:13;12.20;;;6.70;;
4652;SDS011;9900;48.738;9.306;2022-12-13T11:51:45;10.03;;;5.27;;
4652;SDS011;9900;48.738;9.306;2022-12-13T11:54:18;17.37;;;5.50;;
4652;SDS011;9900;48.738;9.306;2022-12-13T11:56:50;11.00;;;6.10;;
4652;SDS011;9900;48.738;9.306;2022-12-13T11:59:30;13.67;;;5.57;;
4652;SDS011;9900;48.738;9.306;2022-12-13T12:02:10;14.93;;;6.03;;
4652;SDS011;9900;48.738;9.306;2022-12-13T12:04:45;12.17;;;6.07;;
4652;SDS011;9900;48.738;9.306;2022-12-13T12:07:26;15.73;;;5.40;;
4652;SDS011;9900;48.738;9.306;2022-12-13T12:10:04;7.07;;;4.93;;
4652;SDS011;9900;48.738;9.306;2022-12-13T12:12:44;9.23;;;5.23;;
4652;SDS011;9900;48.738;9.306;2022-12-13T12:15:17;10.37;;;5.60;;
4652;SDS011;9900;48.738;9.306;2022-12-13T12:17:53;11.90;;;4.53;;
4652;SDS011;9900;48.738;9.306;2022-12-13T12:20:25;7.93;;;4.53;;
4652;SDS011;9900;48.738;9.306;2022-12-13T12:23:00;6.77;;;4.67;;
4652;SDS011;9900;48.738;9.306;2022-12-13T12:25:35;13.17;;;4.80;;
4652;SDS011;9900;48.738;9.306;2022-12-13T12:28:14;9.03;;;5.60;;
4652;SDS011;9900;48.738;9.306;2022-12-13T12:30:51;8.60;;;4.87;;
4652;SDS011;9900;48.738;9.306;2022-12-13T12:33:24;10.47;;;4.70;;
4652;SDS011;9900;48.738;9.306;2022-12-13T12:36:13;9.10;;;4.73;;
4652;SDS011;9900;48.738;9.306;2022-12-13T12:38:54;8.43;;;5.03;;
4652;SDS011;9900;48.738;9.306;2022-12-13T12:41:39;8.60;;;5.47;;
4652;SDS011;9900;48.738;9.306;2022-12-13T12:44:18;6.83;;;4.67;;
4652;SDS011;9900;48.738;9.306;2022-12-13T12:47:00;10.00;;;5.27;;
4652;SDS011;9900;48.738;9.306;2022-12-13T12:50:05;6.50;;;4.60;;
4652;SDS011;9900;48.738;9.306;2022-12-13T12:52:45;7.33;;;4.50;;
4652;SDS011;9900;48.738;9.306;2022-12-13T12:55:29;6.50;;;4.33;;
4652;SDS011;9900;48.738;9.306;2022-12-13T12:58:07;7.50;;;4.53;;
4652;SDS011;9900;48.738;9.306;2022-12-13T13:00:43;6.57;;;4.50;;
4652;SDS011;9900;48.738;9.306;2022-12-13T13:03:18;12.80;;;5.17;;
4652;SDS011;9900;48.738;9.306;2022-12-13T13:05:50;6.67;;;4.70;;
4652;SDS011;9900;48.738;9.306;2022-12-13T13:08:32;10.43;;;5.00;;
4652;SDS011;9900;48.738;9.306;2022-12-13T13:11:04;9.83;;;4.70;;
4652;SDS011;9900;48.738;9.306;2022-12-13T13:13:59;9.40;;;5.27;;
4652;SDS011;9900;48.738;9.306;2022-12-13T13:16:31;8.47;;;4.40;;
4652;SDS011;9900;48.738;9.306;2022-12-13T13:19:02;8.80;;;4.63;;
4652;SDS011;9900;48.738;9.306;2022-12-13T13:21:32;9.80;;;5.07;;
4652;SDS011;9900;48.738;9.306;2022-12-13T13:24:09;7.40;;;4.50;;
4652;SDS011;9900;48.738;9.306;2022-12-13T13:26:51;9.37;;;4.87;;
4652;SDS011;9900;48.738;9.306;2022-12-13T13:32:21;7.27;;;4.43;;
4652;SDS011;9900;48.738;9.306;2022-12-13T13:37:57;7.67;;;4.40;;
4652;SDS011;9900;48.738;9.306;2022-12-13T13:40:32;7.97;;;4.50;;
4652;SDS011;9900;48.738;9.306;2022-12-13T13:43:03;5.70;;;3.67;;
4652;SDS011;9900;48.738;9.306;2022-12-13T13:48:50;6.60;;;3.80;;
4652;SDS011;9900;48.738;9.306;2022-12-13T14:07:22;6.63;;;4.13;;
4652;SDS011;9900;48.738;9.306;2022-12-13T14:19:44;5.73;;;4.43;;
4652;SDS011;9900;48.738;9.306;2022-12-13T14:22:37;7.70;;;4.60;;
4652;SDS011;9900;48.738;9.306;2022-12-13T14:25:30;7.80;;;4.40;;
4652;SDS011;9900;48.738;9.306;2022-12-13T14:28:17;8.93;;;5.23;;
4652;SDS011;9900;48.738;9.306;2022-12-13T14:30:53;11.60;;;4.20;;
4652;SDS011;9900;48.738;9.306;2022-12-13T14:33:24;12.83;;;4.40;;
4652;SDS011;9900;48.738;9.306;2022-12-13T14:35:55;8.27;;;4.93;;
4652;SDS011;9900;48.738;9.306;2022-12-13T14:38:26;6.87;;;4.37;;
4652;SDS011;9900;48.738;9.306;2022-12-13T14:40:56;6.90;;;4.43;;
4652;SDS011;9900;48.738;9.306;2022-12-13T14:43:28;7.80;;;5.00;;
4652;SDS011;9900;48.738;9.306;2022-12-13T14:45:58;9.27;;;6.17;;
4652;SDS011;9900;48.738;9.306;2022-12-13T14:48:28;23.50;;;12.67;;
4652;SDS011;9900;48.738;9.306;2022-12-13T14:50:57;11.77;;;6.53;;
4652;SDS011;9900;48.738;9.306;2022-12-13T14:53:26;10.43;;;6.30;;
4652;SDS011;9900;48.738;9.306;2022-12-13T14:56:03;13.63;;;6.80;;
4652;SDS011;9900;48.738;9.306;2022-12-13T14:58:35;11.10;;;6.03;;
4652;SDS011;9900;48.738;9.306;2022-12-13T15:01:04;9.70;;;5.70;;
4652;SDS011;9900;48.738;9.306;2022-12-13T15:03:33;7.67;;;5.30;;
4652;SDS011;9900;48.738;9.306;2022-12-13T15:06:02;11.03;;;5.90;;
4652;SDS011;9900;48.738;9.306;2022-12-13T15:08:31;12.03;;;6.07;;
4652;SDS011;9900;48.738;9.306;2022-12-13T15:11:02;9.80;;;5.60;;
4652;SDS011;9900;48.738;9.306;2022-12-13T15:13:38;17.63;;;9.67;;
4652;SDS011;9900;48.738;9.306;2022-12-13T15:16:09;17.57;;;8.90;;
4652;SDS011;9900;48.738;9.306;2022-12-13T15:18:43;14.47;;;6.07;;
4652;SDS011;9900;48.738;9.306;2022-12-13T15:21:19;9.00;;;5.00;;
4652;SDS011;9900;48.738;9.306;2022-12-13T15:23:49;15.03;;;6.20;;
4652;SDS011;9900;48.738;9.306;2022-12-13T15:26:19;9.57;;;5.80;;
4652;SDS011;9900;48.738;9.306;2022-12-13T15:28:57;14.30;;;6.40;;
4652;SDS011;9900;48.738;9.306;2022-12-13T15:31:27;10.33;;;6.00;;
4652;SDS011;9900;48.738;9.306;2022-12-13T15:37:01;9.27;;;5.90;;
4652;SDS011;9900;48.738;9.306;2022-12-13T15:39:34;14.63;;;6.40;;
4652;SDS011;9900;48.738;9.306;2022-12-13T15:42:04;18.43;;;6.87;;
4652;SDS011;9900;48.738;9.306;2022-12-13T15:44:48;14.50;;;6.60;;
4652;SDS011;9900;48.738;9.306;2022-12-13T15:47:20;10.10;;;5.70;;
4652;SDS011;9900;48.738;9.306;2022-12-13T15:49:55;10.67;;;6.57;;
4652;SDS011;9900;48.738;9.306;2022-12-13T15:52:29;20.73;;;6.37;;
4652;SDS011;9900;48.738;9.306;2022-12-13T15:57:55;12.47;;;7.30;;
4652;SDS011;9900;48.738;9.306;2022-12-13T16:00:26;10.70;;;6.40;;
4652;SDS011;9900;48.738;9.306;2022-12-13T16:02:59;16.07;;;7.00;;
4652;SDS011;9900;48.738;9.306;2022-12-13T16:05:37;10.73;;;6.27;;
4652;SDS011;9900;48.738;9.306;2022-12-13T16:08:15;17.47;;;7.37;;
4652;SDS011;9900;48.738;9.306;2022-12-13T16:10:50;11.00;;;6.70;;
4652;SDS011;9900;48.738;9.306;2022-12-13T16:13:22;11.30;;;6.63;;
4652;SDS011;9900;48.738;9.306;2022-12-13T16:15:55;15.70;;;7.00;;
4652;SDS011;9900;48.738;9.306;2022-12-13T16:18:28;12.10;;;6.40;;